createdAt,value
2017-10-16T00:00:04.152Z,101318.43
2017-10-16T00:01:10.533Z,101311.10
2017-10-16T00:02:17.328Z,101315.59
2017-10-16T00:03:25.845Z,101317.25
2017-10-16T00:04:32.106Z,101316.80
2017-10-16T00:05:38.472Z,101316.54
2017-10-16T00:06:45.279Z,101318.80
2017-10-16T00:07:51.463Z,101316.52
2017-10-16T00:09:00.807Z,101315.61
2017-10-16T00:10:07.088Z,101318.25
2017-10-16T00:11:13.133Z,101319.79
2017-10-16T00:12:19.995Z,101320.39
2017-10-16T00:13:28.976Z,101323.00
2017-10-16T00:14:34.977Z,101321.89
2017-10-16T00:15:41.195Z,101323.09
2017-10-16T00:16:47.380Z,101321.77
2017-10-16T00:17:53.553Z,101323.12
2017-10-16T00:19:00.772Z,101321.81
2017-10-16T00:20:07.937Z,101315.70
2017-10-16T00:21:14.193Z,101324.22
2017-10-16T00:22:20.519Z,101323.98
2017-10-16T00:23:27.013Z,101323.86
2017-10-16T00:24:33.020Z,101324.49
2017-10-16T00:25:39.898Z,101325.96
2017-10-16T00:26:46.600Z,101323.62
2017-10-16T00:27:56.553Z,101326.98
2017-10-16T00:29:05.046Z,101330.19
2017-10-16T00:30:11.193Z,101328.37
2017-10-16T00:31:17.352Z,101326.71
2017-10-16T00:32:24.164Z,101328.91
2017-10-16T00:33:30.344Z,101329.91
2017-10-16T00:34:35.682Z,101323.91
2017-10-16T00:35:41.809Z,101328.09
2017-10-16T00:36:48.036Z,101328.37
2017-10-16T00:37:54.240Z,101329.72
2017-10-16T00:39:00.465Z,101321.72
2017-10-16T00:40:06.804Z,101321.78
2017-10-16T00:41:13.336Z,101326.48
2017-10-16T00:42:19.574Z,101319.71
2017-10-16T00:43:26.508Z,101323.24
2017-10-16T00:44:32.745Z,101323.19
2017-10-16T00:45:38.766Z,101324.91
2017-10-16T00:46:47.592Z,101319.38
2017-10-16T00:47:55.029Z,101320.89
2017-10-16T00:49:01.176Z,101320.95
2017-10-16T00:50:07.885Z,101317.70
2017-10-16T00:51:14.103Z,101323.06
2017-10-16T00:52:24.022Z,101316.30
2017-10-16T00:53:32.247Z,101318.03
2017-10-16T00:54:38.445Z,101321.82
2017-10-16T00:55:46.706Z,101321.13
2017-10-16T00:56:52.209Z,101314.00
2017-10-16T00:58:01.535Z,101313.83
2017-10-16T00:59:08.114Z,101310.98
2017-10-16T01:00:14.532Z,101310.63
2017-10-16T01:01:20.575Z,101309.28
2017-10-16T01:02:28.424Z,101307.59
2017-10-16T01:03:36.316Z,101313.36
2017-10-16T01:04:43.211Z,101304.79
2017-10-16T01:05:49.446Z,101307.67
2017-10-16T01:06:55.845Z,101307.80
2017-10-16T01:08:01.957Z,101302.75
2017-10-16T01:09:07.883Z,101303.77
2017-10-16T01:10:14.189Z,101301.14
2017-10-16T01:11:21.815Z,101308.56
2017-10-16T01:12:27.995Z,101306.67
2017-10-16T01:13:34.424Z,101297.59
2017-10-16T01:14:40.863Z,101300.20
2017-10-16T01:15:46.521Z,101307.87
2017-10-16T01:16:53.466Z,101302.98
2017-10-16T01:17:59.337Z,101300.25
2017-10-16T01:19:04.915Z,101300.94
2017-10-16T01:20:10.370Z,101297.81
2017-10-16T01:21:16.584Z,101294.20
2017-10-16T01:22:22.964Z,101290.66
2017-10-16T01:23:28.392Z,101293.66
2017-10-16T01:24:34.294Z,101297.42
2017-10-16T01:25:40.362Z,101289.05
2017-10-16T01:26:46.133Z,101293.89
2017-10-16T01:27:52.281Z,101293.45
2017-10-16T01:28:58.036Z,101283.16
2017-10-16T01:30:03.308Z,101286.66
2017-10-16T01:31:09.128Z,101285.73
2017-10-16T01:32:15.046Z,101279.87
2017-10-16T01:33:20.520Z,101284.22
2017-10-16T01:34:26.135Z,101283.63
2017-10-16T01:35:31.356Z,101280.08
2017-10-16T01:36:37.299Z,101285.47
2017-10-16T01:37:42.411Z,101279.62
2017-10-16T01:38:47.943Z,101279.95
2017-10-16T01:39:53.369Z,101279.11
2017-10-16T01:40:58.825Z,101281.63
2017-10-16T01:42:05.105Z,101281.20
2017-10-16T01:43:10.929Z,101279.87
2017-10-16T01:44:16.735Z,101282.48
2017-10-16T01:45:22.265Z,101277.02
2017-10-16T01:46:27.908Z,101280.63
2017-10-16T01:47:33.974Z,101282.78
2017-10-16T01:48:40.094Z,101278.35
2017-10-16T01:49:46.483Z,101275.22
2017-10-16T01:50:52.722Z,101280.38
2017-10-16T01:51:58.383Z,101272.75
2017-10-16T01:53:04.867Z,101282.67
2017-10-16T01:54:14.248Z,101279.05
2017-10-16T01:55:20.733Z,101272.42
2017-10-16T01:56:26.712Z,101271.37
2017-10-16T01:57:32.359Z,101276.80
2017-10-16T01:58:37.719Z,101275.25
2017-10-16T01:59:43.233Z,101274.63
2017-10-16T02:00:50.155Z,101274.52
2017-10-16T02:01:56.248Z,101270.36
2017-10-16T02:03:02.521Z,101269.51
2017-10-16T02:04:08.091Z,101272.40
2017-10-16T02:05:13.938Z,101266.77
2017-10-16T02:06:20.067Z,101274.00
2017-10-16T02:07:26.340Z,101270.56
2017-10-16T02:08:33.406Z,101265.58
2017-10-16T02:09:39.792Z,101269.19
2017-10-16T02:10:46.424Z,101275.05
2017-10-16T02:11:52.623Z,101266.45
2017-10-16T02:12:58.824Z,101275.91
2017-10-16T02:14:05.468Z,101271.63
2017-10-16T02:15:14.272Z,101263.30
2017-10-16T02:16:20.551Z,101266.72
2017-10-16T02:17:26.881Z,101269.08
2017-10-16T02:18:35.326Z,101269.78
2017-10-16T02:19:41.748Z,101274.13
2017-10-16T02:20:48.144Z,101275.34
2017-10-16T02:21:54.965Z,101273.84
2017-10-16T02:23:01.641Z,101276.09
2017-10-16T02:24:07.662Z,101274.58
2017-10-16T02:25:13.949Z,101283.33
2017-10-16T02:26:21.027Z,101281.50
2017-10-16T02:27:27.198Z,101279.91
2017-10-16T02:28:36.497Z,101276.67
2017-10-16T02:29:43.192Z,101273.39
2017-10-16T02:30:49.426Z,101276.95
2017-10-16T02:31:55.676Z,101276.45
2017-10-16T02:33:02.204Z,101282.39
2017-10-16T02:34:08.373Z,101274.19
2017-10-16T02:35:14.956Z,101279.86
2017-10-16T02:36:22.470Z,101282.05
2017-10-16T02:37:28.782Z,101282.58
2017-10-16T02:38:34.960Z,101278.61
2017-10-16T02:39:41.176Z,101280.00
2017-10-16T02:40:47.368Z,101283.25
2017-10-16T02:41:53.606Z,101274.66
2017-10-16T02:43:00.137Z,101277.20
2017-10-16T02:44:06.705Z,101280.55
2017-10-16T02:45:13.152Z,101277.37
2017-10-16T02:46:19.349Z,101280.75
2017-10-16T02:47:25.652Z,101282.59
2017-10-16T02:48:31.778Z,101280.73
2017-10-16T02:49:37.777Z,101283.95
2017-10-16T02:50:44.200Z,101284.06
2017-10-16T02:51:50.219Z,101285.55
2017-10-16T02:52:56.595Z,101284.22
2017-10-16T02:54:02.713Z,101281.44
2017-10-16T02:55:09.162Z,101281.85
2017-10-16T02:56:15.371Z,101281.33
2017-10-16T02:57:21.664Z,101279.20
2017-10-16T02:58:27.883Z,101281.75
2017-10-16T02:59:34.390Z,101282.29
2017-10-16T03:00:40.825Z,101280.95
2017-10-16T03:01:47.297Z,101277.75
2017-10-16T03:02:53.524Z,101278.78
2017-10-16T03:03:59.745Z,101280.36
2017-10-16T03:05:06.074Z,101277.20
2017-10-16T03:06:12.337Z,101280.81
2017-10-16T03:07:20.402Z,101279.97
2017-10-16T03:08:26.383Z,101277.04
2017-10-16T03:09:32.651Z,101276.67
2017-10-16T03:10:38.933Z,101279.58
2017-10-16T03:11:44.930Z,101282.20
2017-10-16T03:12:51.127Z,101273.20
2017-10-16T03:13:57.870Z,101274.45
2017-10-16T03:15:03.919Z,101276.73
2017-10-16T03:16:09.985Z,101284.20
2017-10-16T03:17:16.195Z,101274.77
2017-10-16T03:18:22.836Z,101280.30
2017-10-16T03:19:29.664Z,101272.61
2017-10-16T03:20:35.949Z,101276.29
2017-10-16T03:21:44.140Z,101279.51
2017-10-16T03:22:50.395Z,101279.06
2017-10-16T03:23:56.620Z,101279.02
2017-10-16T03:25:03.424Z,101284.16
2017-10-16T03:26:09.721Z,101286.66
2017-10-16T03:27:15.932Z,101289.13
2017-10-16T03:28:22.313Z,101290.94
2017-10-16T03:29:28.432Z,101287.84
2017-10-16T03:30:34.414Z,101285.88
2017-10-16T03:31:40.596Z,101286.12
2017-10-16T03:32:46.696Z,101281.38
2017-10-16T03:33:53.623Z,101280.34
2017-10-16T03:35:00.335Z,101283.36
2017-10-16T03:36:06.841Z,101289.50
2017-10-16T03:37:13.261Z,101290.84
2017-10-16T03:38:21.129Z,101284.34
2017-10-16T03:39:27.758Z,101284.59
2017-10-16T03:40:34.094Z,101285.63
2017-10-16T03:41:42.125Z,101289.16
2017-10-16T03:42:48.726Z,101289.61
2017-10-16T03:43:57.573Z,101292.03
2017-10-16T03:45:06.173Z,101296.75
2017-10-16T03:46:12.386Z,101294.78
2017-10-16T03:47:18.595Z,101294.63
2017-10-16T03:48:25.112Z,101287.32
2017-10-16T03:49:31.814Z,101293.33
2017-10-16T03:50:48.087Z,101291.16
2017-10-16T03:51:57.653Z,101290.47
2017-10-16T03:53:03.855Z,101292.60
2017-10-16T03:54:10.240Z,101289.31
2017-10-16T03:55:16.334Z,101285.47
2017-10-16T03:56:22.728Z,101287.58
2017-10-16T03:57:32.171Z,101287.58
2017-10-16T03:58:39.050Z,101284.57
2017-10-16T03:59:45.977Z,101290.06
2017-10-16T04:00:52.513Z,101285.09
2017-10-16T04:01:59.831Z,101284.59
2017-10-16T04:03:08.451Z,101289.91
2017-10-16T04:04:15.357Z,101289.44
2017-10-16T04:05:21.905Z,101294.20
2017-10-16T04:06:28.837Z,101293.31
2017-10-16T04:07:36.675Z,101286.15
2017-10-16T04:08:42.896Z,101292.11
2017-10-16T04:09:48.982Z,101289.76
2017-10-16T04:10:55.853Z,101289.78
2017-10-16T04:12:02.511Z,101296.58
2017-10-16T04:13:10.213Z,101297.41
2017-10-16T04:14:16.322Z,101297.13
2017-10-16T04:15:22.705Z,101300.20
2017-10-16T04:16:30.551Z,101289.98
2017-10-16T04:17:37.938Z,101293.41
2017-10-16T04:18:45.064Z,101299.20
2017-10-16T04:19:51.427Z,101296.38
2017-10-16T04:20:57.732Z,101298.19
2017-10-16T04:22:04.653Z,101297.81
2017-10-16T04:23:11.193Z,101296.15
2017-10-16T04:24:17.405Z,101290.88
2017-10-16T04:25:24.475Z,101298.42
2017-10-16T04:26:30.599Z,101290.09
2017-10-16T04:27:40.442Z,101294.16
2017-10-16T04:28:52.439Z,101293.20
2017-10-16T04:30:06.858Z,101286.48
2017-10-16T04:31:15.598Z,101291.25
2017-10-16T04:32:22.863Z,101288.60
2017-10-16T04:33:29.981Z,101291.16
2017-10-16T04:34:37.121Z,101287.08
2017-10-16T04:35:43.357Z,101290.36
2017-10-16T04:36:50.063Z,101286.51
2017-10-16T04:37:56.700Z,101291.63
2017-10-16T04:39:03.519Z,101294.70
2017-10-16T04:40:10.814Z,101288.44
2017-10-16T04:41:17.718Z,101284.13
2017-10-16T04:42:27.657Z,101283.70
2017-10-16T04:43:34.340Z,101280.66
2017-10-16T04:44:40.890Z,101279.27
2017-10-16T04:45:46.885Z,101286.21
2017-10-16T04:46:53.872Z,101277.20
2017-10-16T04:48:00.853Z,101278.75
2017-10-16T04:49:06.609Z,101277.66
2017-10-16T04:50:13.500Z,101282.48
2017-10-16T04:51:19.969Z,101282.60
2017-10-16T04:52:26.185Z,101289.86
2017-10-16T04:53:32.189Z,101287.80
2017-10-16T04:54:38.382Z,101288.22
2017-10-16T04:55:45.014Z,101289.72
2017-10-16T04:56:52.181Z,101289.88
2017-10-16T04:57:58.405Z,101289.40
2017-10-16T04:59:04.621Z,101291.59
2017-10-16T05:00:10.589Z,101290.99
2017-10-16T05:01:17.618Z,101285.52
2017-10-16T05:02:23.790Z,101292.37
2017-10-16T05:03:30.264Z,101289.92
2017-10-16T05:04:36.635Z,101287.48
2017-10-16T05:05:45.011Z,101287.32
2017-10-16T05:06:54.084Z,101292.91
2017-10-16T05:08:01.063Z,101290.68
2017-10-16T05:09:08.369Z,101284.14
2017-10-16T05:10:14.267Z,101287.09
2017-10-16T05:11:25.057Z,101288.81
2017-10-16T05:12:31.240Z,101290.84
2017-10-16T05:13:38.357Z,101284.56
2017-10-16T05:14:44.589Z,101291.59
2017-10-16T05:15:56.274Z,101291.13
2017-10-16T05:17:06.138Z,101293.89
2017-10-16T05:18:12.323Z,101294.30
2017-10-16T05:19:18.698Z,101292.01
2017-10-16T05:20:26.078Z,101287.76
2017-10-16T05:21:34.714Z,101296.48
2017-10-16T05:22:41.788Z,101287.59
2017-10-16T05:23:48.981Z,101293.82
2017-10-16T05:24:55.254Z,101293.88
2017-10-16T05:26:01.583Z,101294.64
2017-10-16T05:27:09.477Z,101295.89
2017-10-16T05:28:16.172Z,101297.96
2017-10-16T05:29:22.669Z,101293.28
2017-10-16T05:30:29.649Z,101296.73
2017-10-16T05:31:37.260Z,101300.48
2017-10-16T05:32:43.536Z,101301.06
2017-10-16T05:33:49.791Z,101310.39
2017-10-16T05:34:56.952Z,101304.84
2017-10-16T05:36:03.242Z,101304.42
2017-10-16T05:37:09.049Z,101304.87
2017-10-16T05:38:15.250Z,101301.14
2017-10-16T05:39:21.639Z,101301.34
2017-10-16T05:40:28.715Z,101305.47
2017-10-16T05:41:35.807Z,101297.94
2017-10-16T05:42:42.002Z,101299.30
2017-10-16T05:43:48.201Z,101305.97
2017-10-16T05:44:55.307Z,101303.61
2017-10-16T05:46:00.737Z,101305.45
2017-10-16T05:47:06.722Z,101304.30
2017-10-16T05:48:14.096Z,101305.87
2017-10-16T05:49:20.243Z,101311.16
2017-10-16T05:50:26.882Z,101310.95
2017-10-16T05:51:33.151Z,101311.40
2017-10-16T05:52:39.580Z,101306.08
2017-10-16T05:53:46.720Z,101305.19
2017-10-16T05:54:53.718Z,101300.11
2017-10-16T05:56:00.768Z,101301.45
2017-10-16T05:57:06.978Z,101296.71
2017-10-16T05:58:13.291Z,101306.69
2017-10-16T05:59:20.700Z,101307.38
2017-10-16T06:00:27.047Z,101307.73
2017-10-16T06:03:04.440Z,101306.85
2017-10-16T06:04:10.644Z,101307.03
2017-10-16T06:05:16.116Z,101312.45
2017-10-16T06:06:21.634Z,101311.72
2017-10-16T06:07:26.815Z,101308.39
2017-10-16T06:08:32.176Z,101306.95
2017-10-16T06:09:37.656Z,101306.83
2017-10-16T06:10:43.727Z,101305.98
2017-10-16T06:11:50.343Z,101302.73
2017-10-16T06:12:56.204Z,101314.28
2017-10-16T06:14:02.337Z,101313.05
2017-10-16T06:15:08.487Z,101314.34
2017-10-16T06:16:14.535Z,101310.61
2017-10-16T06:17:19.945Z,101314.30
2017-10-16T06:18:25.552Z,101319.33
2017-10-16T06:19:31.706Z,101310.75
2017-10-16T06:20:41.281Z,101315.81
2017-10-16T06:21:47.510Z,101310.21
2017-10-16T06:22:53.240Z,101320.72
2017-10-16T06:24:01.027Z,101323.72
2017-10-16T06:25:07.027Z,101328.23
2017-10-16T06:26:12.703Z,101338.59
2017-10-16T06:27:18.801Z,101339.38
2017-10-16T06:28:25.201Z,101337.78
2017-10-16T06:29:31.383Z,101336.53
2017-10-16T06:30:37.293Z,101336.91
2017-10-16T06:31:43.299Z,101337.65
2017-10-16T06:32:50.537Z,101336.02
2017-10-16T06:33:56.927Z,101333.05
2017-10-16T06:35:03.331Z,101330.00
2017-10-16T06:36:09.203Z,101333.83
2017-10-16T06:37:15.592Z,101336.81
2017-10-16T06:38:24.231Z,101336.62
2017-10-16T06:39:31.067Z,101337.78
2017-10-16T06:40:38.191Z,101340.91
2017-10-16T06:41:44.409Z,101342.66
2017-10-16T06:42:50.280Z,101342.38
2017-10-16T06:43:56.132Z,101343.22
2017-10-16T06:45:02.293Z,101342.73
2017-10-16T06:46:09.188Z,101344.43
2017-10-16T06:47:14.731Z,101345.13
2017-10-16T06:48:24.293Z,101351.05
2017-10-16T06:49:30.507Z,101349.92
2017-10-16T06:50:37.354Z,101356.39
2017-10-16T06:51:43.541Z,101352.65
2017-10-16T06:52:50.809Z,101346.86
2017-10-16T06:53:57.009Z,101348.05
2017-10-16T06:55:03.104Z,101344.69
2017-10-16T06:56:10.211Z,101348.31
2017-10-16T06:57:16.222Z,101350.41
2017-10-16T06:58:22.697Z,101340.73
2017-10-16T06:59:29.200Z,101352.02
2017-10-16T07:00:35.388Z,101352.14
2017-10-16T07:01:41.593Z,101351.06
2017-10-16T07:02:47.847Z,101351.46
2017-10-16T07:03:53.912Z,101353.95
2017-10-16T07:04:59.980Z,101351.67
2017-10-16T07:06:06.320Z,101353.95
2017-10-16T07:07:12.523Z,101356.50
2017-10-16T07:08:18.861Z,101355.62
2017-10-16T07:09:25.069Z,101353.44
2017-10-16T07:10:31.895Z,101363.27
2017-10-16T07:11:38.080Z,101362.47
2017-10-16T07:12:44.413Z,101361.19
2017-10-16T07:13:50.408Z,101361.90
2017-10-16T07:14:56.773Z,101369.05
2017-10-16T07:16:06.385Z,101363.23
2017-10-16T07:17:12.606Z,101364.17
2017-10-16T07:18:19.093Z,101356.53
2017-10-16T07:19:25.337Z,101359.33
2017-10-16T07:20:32.264Z,101357.90
2017-10-16T07:21:38.910Z,101358.95
2017-10-16T07:22:45.523Z,101355.96
2017-10-16T07:23:51.845Z,101354.27
2017-10-16T07:24:58.056Z,101352.42
2017-10-16T07:26:04.234Z,101354.83
2017-10-16T07:27:12.070Z,101349.03
2017-10-16T07:28:18.395Z,101347.64
2017-10-16T07:29:24.505Z,101350.19
2017-10-16T07:30:30.983Z,101355.07
2017-10-16T07:31:37.662Z,101361.04
2017-10-16T07:32:45.058Z,101357.54
2017-10-16T07:33:51.372Z,101357.84
2017-10-16T07:34:57.890Z,101362.91
2017-10-16T07:36:04.201Z,101359.55
2017-10-16T07:37:10.491Z,101362.33
2017-10-16T07:38:16.565Z,101364.97
2017-10-16T07:39:23.845Z,101366.47
2017-10-16T07:40:29.873Z,101367.07
2017-10-16T07:41:38.856Z,101372.65
2017-10-16T07:42:45.168Z,101374.23
2017-10-16T07:43:51.326Z,101372.97
2017-10-16T07:44:57.474Z,101376.42
2017-10-16T07:46:03.655Z,101374.58
2017-10-16T07:47:09.811Z,101372.34
2017-10-16T07:48:17.539Z,101379.11
2017-10-16T07:49:23.649Z,101377.16
2017-10-16T07:50:29.886Z,101379.23
2017-10-16T07:51:36.622Z,101384.19
2017-10-16T07:52:42.799Z,101385.77
2017-10-16T07:53:49.094Z,101387.55
2017-10-16T07:54:55.461Z,101384.59
2017-10-16T07:56:01.700Z,101384.62
2017-10-16T07:57:09.424Z,101385.34
2017-10-16T07:58:15.716Z,101385.09
2017-10-16T07:59:22.210Z,101391.36
2017-10-16T08:00:28.384Z,101382.71
2017-10-16T08:01:34.720Z,101390.75
2017-10-16T08:02:41.856Z,101383.53
2017-10-16T08:03:47.991Z,101389.91
2017-10-16T08:04:54.145Z,101380.51
2017-10-16T08:06:00.652Z,101384.21
2017-10-16T08:07:06.501Z,101379.25
2017-10-16T08:08:12.712Z,101378.98
2017-10-16T08:09:18.996Z,101369.97
2017-10-16T08:10:31.439Z,101371.11
2017-10-16T08:11:38.571Z,101372.03
2017-10-16T08:12:44.827Z,101378.36
2017-10-16T08:13:51.189Z,101372.77
2017-10-16T08:14:57.594Z,101378.61
2017-10-16T08:16:03.941Z,101379.53
2017-10-16T08:17:09.954Z,101379.58
2017-10-16T08:18:16.156Z,101387.66
2017-10-16T08:19:21.845Z,101380.67
2017-10-16T08:20:28.063Z,101381.34
2017-10-16T08:21:34.234Z,101387.92
2017-10-16T08:22:39.743Z,101380.08
2017-10-16T08:23:47.199Z,101384.72
2017-10-16T08:24:53.124Z,101384.55
2017-10-16T08:25:58.597Z,101377.28
2017-10-16T08:27:04.847Z,101378.91
2017-10-16T08:28:11.174Z,101382.53
2017-10-16T08:29:17.406Z,101380.38
2017-10-16T08:30:22.985Z,101379.82
2017-10-16T08:31:28.392Z,101380.41
2017-10-16T08:32:34.009Z,101379.05
2017-10-16T08:33:39.604Z,101379.42
2017-10-16T08:34:46.467Z,101386.08
2017-10-16T08:35:52.782Z,101378.63
2017-10-16T08:36:58.253Z,101387.27
2017-10-16T08:38:03.733Z,101384.92
2017-10-16T08:39:09.724Z,101385.48
2017-10-16T08:40:15.729Z,101387.34
2017-10-16T08:41:22.684Z,101385.45
2017-10-16T08:42:28.033Z,101381.91
2017-10-16T08:43:34.385Z,101379.35
2017-10-16T08:44:40.133Z,101383.69
2017-10-16T08:45:46.107Z,101383.58
2017-10-16T08:46:54.272Z,101382.84
2017-10-16T08:48:00.511Z,101391.05
2017-10-16T08:49:06.373Z,101384.77
2017-10-16T08:50:11.797Z,101393.84
2017-10-16T08:51:17.298Z,101395.23
2017-10-16T08:52:22.878Z,101393.37
2017-10-16T08:53:28.300Z,101387.91
2017-10-16T08:54:34.536Z,101394.32
2017-10-16T08:55:39.969Z,101397.94
2017-10-16T08:56:46.345Z,101394.85
2017-10-16T08:57:51.812Z,101389.91
2017-10-16T08:58:59.733Z,101385.80
2017-10-16T09:00:06.550Z,101380.84
2017-10-16T09:01:12.321Z,101380.38
2017-10-16T09:02:18.616Z,101383.27
2017-10-16T09:03:24.053Z,101392.05
2017-10-16T09:04:30.633Z,101384.95
2017-10-16T09:05:37.052Z,101384.57
2017-10-16T09:06:43.745Z,101382.55
2017-10-16T09:07:49.930Z,101392.81
2017-10-16T09:08:55.172Z,101392.39
2017-10-16T09:10:01.028Z,101393.50
2017-10-16T09:11:14.976Z,101394.83
2017-10-16T09:12:26.182Z,101394.35
2017-10-16T09:13:31.912Z,101387.33
2017-10-16T09:14:38.801Z,101377.61
2017-10-16T09:15:44.303Z,101376.42
2017-10-16T09:16:51.520Z,101375.99
2017-10-16T09:17:58.229Z,101380.47
2017-10-16T09:19:06.495Z,101377.30
2017-10-16T09:20:12.579Z,101371.50
2017-10-16T09:21:18.610Z,101371.23
2017-10-16T09:22:24.088Z,101371.73
2017-10-16T09:23:30.557Z,101365.91
2017-10-16T09:24:36.171Z,101368.09
2017-10-16T09:25:43.130Z,101364.96
2017-10-16T09:26:48.848Z,101368.48
2017-10-16T09:27:54.828Z,101360.02
2017-10-16T09:29:01.975Z,101360.13
2017-10-16T09:30:09.854Z,101356.11
2017-10-16T09:31:21.556Z,101354.53
2017-10-16T09:32:33.196Z,101352.59
2017-10-16T09:33:43.230Z,101361.27
2017-10-16T09:34:54.442Z,101368.59
2017-10-16T09:36:02.362Z,101372.31
2017-10-16T09:37:08.694Z,101368.87
2017-10-16T09:38:16.397Z,101376.65
2017-10-16T09:39:23.892Z,101370.15
2017-10-16T09:40:29.435Z,101370.50
2017-10-16T09:41:34.910Z,101363.31
2017-10-16T09:42:41.357Z,101366.45
2017-10-16T09:43:47.508Z,101370.02
2017-10-16T09:44:53.083Z,101380.11
2017-10-16T09:45:59.063Z,101380.06
2017-10-16T09:47:05.277Z,101370.34
2017-10-16T09:48:11.855Z,101366.69
2017-10-16T09:49:17.521Z,101361.23
2017-10-16T09:50:24.201Z,101362.09
2017-10-16T09:51:30.013Z,101359.19
2017-10-16T09:52:36.689Z,101368.00
2017-10-16T09:53:43.537Z,101363.69
2017-10-16T09:54:49.430Z,101355.00
2017-10-16T09:55:55.454Z,101357.42
2017-10-16T09:57:01.344Z,101352.26
2017-10-16T09:58:07.171Z,101368.66
2017-10-16T09:59:12.969Z,101360.00
2017-10-16T10:00:19.685Z,101360.69
2017-10-16T10:01:29.391Z,101355.30
2017-10-16T10:02:37.522Z,101357.02
2017-10-16T10:03:43.743Z,101358.02
2017-10-16T10:04:54.236Z,101358.87
2017-10-16T10:10:11.546Z,101363.98
2017-10-16T10:11:21.001Z,101368.04
2017-10-16T10:12:31.379Z,101365.85
2017-10-16T10:13:39.008Z,101364.49
2017-10-16T10:14:45.529Z,101360.34
2017-10-16T10:15:52.147Z,101365.66
2017-10-16T10:16:58.464Z,101366.09
2017-10-16T10:18:05.248Z,101361.27
2017-10-16T10:19:11.796Z,101365.66
2017-10-16T10:20:17.950Z,101363.84
2017-10-16T10:21:24.045Z,101361.66
2017-10-16T10:22:30.630Z,101362.44
2017-10-16T10:23:37.558Z,101371.03
2017-10-16T10:24:44.137Z,101364.98
2017-10-16T10:25:51.101Z,101363.42
2017-10-16T10:26:57.842Z,101358.41
2017-10-16T10:28:05.353Z,101360.64
2017-10-16T10:29:11.492Z,101357.82
2017-10-16T10:30:17.668Z,101345.85
2017-10-16T10:31:24.370Z,101357.50
2017-10-16T10:32:30.554Z,101351.87
2017-10-16T10:33:36.708Z,101356.10
2017-10-16T10:34:53.121Z,101350.39
2017-10-16T10:35:59.264Z,101356.23
2017-10-16T10:37:05.433Z,101352.46
2017-10-16T10:38:11.669Z,101358.56
2017-10-16T10:39:18.334Z,101361.66
2017-10-16T10:40:26.422Z,101362.67
2017-10-16T10:41:32.893Z,101363.27
2017-10-16T10:42:39.087Z,101353.34
2017-10-16T10:44:04.654Z,101347.23
2017-10-16T10:45:17.597Z,101355.83
2017-10-16T10:46:24.340Z,101362.11
2017-10-16T10:47:35.542Z,101356.30
2017-10-16T10:48:42.045Z,101357.00
2017-10-16T10:49:48.371Z,101352.62
2017-10-16T10:50:58.883Z,101357.87
2017-10-16T10:52:06.432Z,101357.90
2017-10-16T10:53:13.246Z,101362.16
2017-10-16T10:54:20.086Z,101365.44
2017-10-16T10:55:27.544Z,101357.36
2017-10-16T10:56:35.426Z,101357.81
2017-10-16T10:57:44.015Z,101359.86
2017-10-16T10:58:53.454Z,101357.29
2017-10-16T11:00:00.239Z,101360.91
2017-10-16T11:01:10.130Z,101356.30
2017-10-16T11:02:16.728Z,101352.50
2017-10-16T11:03:23.154Z,101352.80
2017-10-16T11:04:29.978Z,101353.62
2017-10-16T11:05:38.130Z,101356.39
2017-10-16T11:06:45.150Z,101356.34
2017-10-16T11:07:51.892Z,101356.38
2017-10-16T11:08:58.360Z,101360.09
2017-10-16T11:10:04.056Z,101354.38
2017-10-16T11:11:10.359Z,101356.30
2017-10-16T11:12:16.956Z,101358.87
2017-10-16T11:13:23.420Z,101353.33
2017-10-16T11:14:30.579Z,101349.75
2017-10-16T11:15:37.206Z,101343.95
2017-10-16T11:16:45.562Z,101338.99
2017-10-16T11:17:51.558Z,101344.53
2017-10-16T11:18:58.887Z,101353.09
2017-10-16T11:20:04.895Z,101349.90
2017-10-16T11:21:10.183Z,101348.98
2017-10-16T11:22:16.708Z,101352.27
2017-10-16T11:23:22.992Z,101346.44
2017-10-16T11:24:31.267Z,101342.16
2017-10-16T11:25:38.303Z,101341.77
2017-10-16T11:26:44.163Z,101348.64
2017-10-16T11:27:51.513Z,101346.30
2017-10-16T11:28:57.068Z,101342.92
2017-10-16T11:30:04.193Z,101345.02
2017-10-16T11:31:11.812Z,101340.77
2017-10-16T11:32:20.187Z,101341.81
2017-10-16T11:33:28.488Z,101340.33
2017-10-16T11:34:35.427Z,101339.20
2017-10-16T11:35:42.804Z,101335.43
2017-10-16T11:36:49.951Z,101334.84
2017-10-16T11:37:57.449Z,101327.69
2017-10-16T11:39:03.454Z,101336.99
2017-10-16T11:40:09.149Z,101327.73
2017-10-16T11:41:16.465Z,101331.09
2017-10-16T11:42:21.966Z,101325.30
2017-10-16T11:43:27.465Z,101323.08
2017-10-16T11:44:35.356Z,101329.89
2017-10-16T11:45:42.269Z,101331.72
2017-10-16T11:46:48.536Z,101334.69
2017-10-16T11:47:55.899Z,101337.00
2017-10-16T11:49:04.419Z,101336.16
2017-10-16T11:50:13.615Z,101340.23
2017-10-16T11:51:20.532Z,101333.22
2017-10-16T11:52:27.332Z,101327.40
2017-10-16T11:53:38.204Z,101323.56
2017-10-16T11:54:44.715Z,101325.01
2017-10-16T11:55:50.467Z,101321.23
2017-10-16T11:56:58.384Z,101328.23
2017-10-16T11:58:04.375Z,101329.56
2017-10-16T11:59:11.599Z,101323.17
2017-10-16T12:00:18.410Z,101319.67
2017-10-16T12:01:24.795Z,101319.48
2017-10-16T12:02:30.664Z,101321.89
2017-10-16T12:03:36.085Z,101322.03
2017-10-16T12:04:42.706Z,101317.97
2017-10-16T12:05:48.200Z,101321.20
2017-10-16T12:06:54.650Z,101322.14
2017-10-16T12:08:00.648Z,101325.83
2017-10-16T12:09:07.673Z,101328.45
2017-10-16T12:10:13.393Z,101324.49
2017-10-16T12:11:21.646Z,101324.89
2017-10-16T12:12:28.680Z,101315.68
2017-10-16T12:13:34.776Z,101319.85
2017-10-16T12:14:41.732Z,101306.72
2017-10-16T12:15:47.769Z,101315.92
2017-10-16T12:16:59.192Z,101309.73
2017-10-16T12:18:14.909Z,101310.69
2017-10-16T12:19:21.210Z,101306.66
2017-10-16T12:20:29.877Z,101308.77
2017-10-16T12:21:35.236Z,101311.05
2017-10-16T12:22:40.771Z,101302.45
2017-10-16T12:23:47.117Z,101306.92
2017-10-16T12:24:52.568Z,101301.86
2017-10-16T12:25:58.041Z,101306.38
2017-10-16T12:27:04.010Z,101301.14
2017-10-16T12:28:09.244Z,101296.39
2017-10-16T12:29:15.144Z,101297.95
2017-10-16T12:30:20.557Z,101304.59
2017-10-16T12:31:26.612Z,101293.28
2017-10-16T12:32:32.054Z,101293.70
2017-10-16T12:33:37.351Z,101293.88
2017-10-16T12:34:42.845Z,101292.54
2017-10-16T12:35:48.378Z,101296.95
2017-10-16T12:36:53.719Z,101299.80
2017-10-16T12:37:59.231Z,101299.13
2017-10-16T12:39:04.623Z,101299.41
2017-10-16T12:40:10.054Z,101297.66
2017-10-16T12:41:15.407Z,101300.27
2017-10-16T12:42:22.771Z,101300.98
2017-10-16T12:43:28.189Z,101296.36
2017-10-16T12:44:33.440Z,101298.19
2017-10-16T12:45:39.549Z,101292.02
2017-10-16T12:46:44.806Z,101286.42